Time;durP1;ratioP1;P1;durP2;ratioP2;P2;SDS_P1;SDS_P2;PMS_P1;PMS_P2;Temp;Humidity;BMP_temperature;BMP_pressure;BME280_temperature;BME280_humidity;BME280_pressure;Samples;Min_cycle;Max_cycle;Signal;HPM_P1;HPM_P2
2022/06/19 00:01:07;;;;;;;1.40;1.30;;;19.20;99.90;;;;;;5134330;27;20026;-56
2022/06/19 00:03:40;;;;;;;1.55;1.45;;;19.10;99.90;;;;;;5134281;27;20029;-56
2022/06/19 00:06:07;;;;;;;1.63;1.52;;;19.00;99.90;;;;;;5133998;27;20521;-55
2022/06/19 00:08:32;;;;;;;1.67;1.52;;;19.00;99.90;;;;;;5134258;27;20046;-57
2022/06/19 00:10:59;;;;;;;1.20;1.10;;;18.90;99.90;;;;;;5134244;27;20023;-56
2022/06/19 00:13:25;;;;;;;1.40;1.15;;;18.90;99.90;;;;;;5134138;28;20027;-55
2022/06/19 00:15:51;;;;;;;1.75;1.60;;;18.90;99.90;;;;;;5134211;28;20392;-57
2022/06/19 00:18:17;;;;;;;1.88;1.77;;;18.90;99.90;;;;;;5134386;28;20023;-57
2022/06/19 00:20:42;;;;;;;1.50;1.30;;;18.90;99.90;;;;;;5134093;28;20016;-55
2022/06/19 00:23:08;;;;;;;1.55;1.40;;;18.80;99.90;;;;;;5134127;28;20033;-57
2022/06/19 00:25:35;;;;;;;1.83;1.58;;;18.70;99.90;;;;;;5134120;28;20072;-55
2022/06/19 00:28:01;;;;;;;1.95;1.27;;;18.70;99.90;;;;;;5134258;28;20031;-56
2022/06/19 00:30:27;;;;;;;1.58;1.48;;;18.70;99.90;;;;;;5134046;28;20072;-55
2022/06/19 00:32:53;;;;;;;1.35;1.25;;;18.60;99.90;;;;;;5134201;28;20024;-58
2022/06/19 00:35:19;;;;;;;1.70;1.60;;;18.60;99.90;;;;;;5133739;28;20023;-56
2022/06/19 00:37:46;;;;;;;1.42;1.33;;;18.60;99.90;;;;;;5134168;28;20027;-56
2022/06/19 00:40:13;;;;;;;2.40;1.30;;;18.60;99.90;;;;;;5134289;28;20435;-53
2022/06/19 00:42:39;;;;;;;1.35;1.25;;;18.60;99.90;;;;;;5134033;28;20042;-57
2022/06/19 00:45:06;;;;;;;1.40;1.30;;;18.60;99.90;;;;;;5133879;28;20051;-58
2022/06/19 00:47:38;;;;;;;1.40;1.30;;;18.50;99.90;;;;;;5134047;28;20054;-53
2022/06/19 00:50:22;;;;;;;1.87;1.47;;;18.50;99.90;;;;;;5133569;28;20481;-56
2022/06/19 00:52:49;;;;;;;1.63;1.40;;;18.50;99.90;;;;;;5133997;28;20106;-53
2022/06/19 00:55:25;;;;;;;1.30;1.20;;;18.50;99.90;;;;;;5133877;28;20026;-57
2022/06/19 00:57:57;;;;;;;1.30;1.20;;;18.40;99.90;;;;;;5133766;28;20047;-58
2022/06/19 01:00:26;;;;;;;1.25;1.10;;;18.40;99.90;;;;;;5135743;27;20015;-54
2022/06/19 01:03:13;;;;;;;0.93;0.93;;;18.30;99.90;;;;;;5137897;27;20354;-57
2022/06/19 01:05:42;;;;;;;1.27;1.02;;;18.30;99.90;;;;;;5137906;27;20022;-56
2022/06/19 01:08:08;;;;;;;1.23;1.10;;;18.20;99.90;;;;;;5137782;27;20024;-53
2022/06/19 01:10:38;;;;;;;1.42;1.33;;;18.20;99.90;;;;;;5137424;27;20034;-55
2022/06/19 01:13:04;;;;;;;2.03;1.10;;;18.20;99.90;;;;;;5137766;27;20031;-55
2022/06/19 01:15:30;;;;;;;1.30;1.20;;;18.10;99.90;;;;;;5137325;27;20027;-57
2022/06/19 01:18:04;;;;;;;1.17;1.08;;;18.10;99.90;;;;;;5137252;27;20076;-57
2022/06/19 01:20:30;;;;;;;;;;;18.10;99.90;;;;;;5137837;27;20027;-56
2022/06/19 01:23:04;;;;;;;1.02;1.00;;;18.10;99.90;;;;;;5137253;27;20372;-55
2022/06/19 01:25:32;;;;;;;1.40;1.30;;;18.00;99.90;;;;;;5137319;27;20029;-56
2022/06/19 01:30:48;;;;;;;1.60;1.25;;;18.00;99.90;;;;;;5137519;27;20168;-52
2022/06/19 01:33:22;;;;;;;1.30;1.15;;;17.90;99.90;;;;;;5136904;27;20030;-56
2022/06/19 01:35:50;;;;;;;1.60;1.50;;;17.90;99.90;;;;;;5137116;27;20110;-56
2022/06/19 01:38:20;;;;;;;1.33;1.23;;;17.90;99.90;;;;;;5137207;27;20102;-58
2022/06/19 01:40:51;;;;;;;2.67;1.40;;;17.80;99.90;;;;;;5137141;27;20025;-53
2022/06/19 01:43:18;;;;;;;1.63;1.40;;;17.70;99.90;;;;;;5137189;27;20023;-53
2022/06/19 01:45:52;;;;;;;1.65;1.20;;;17.70;99.90;;;;;;5136888;27;20011;-58
2022/06/19 01:48:20;;;;;;;1.55;1.45;;;17.70;99.90;;;;;;5136570;27;20027;-56
2022/06/19 01:50:46;;;;;;;1.40;1.30;;;17.70;99.90;;;;;;5136743;27;20056;-54
2022/06/19 01:53:29;;;;;;;1.40;1.30;;;17.60;99.90;;;;;;5136736;27;20054;-55
2022/06/19 01:55:55;;;;;;;1.52;1.27;;;17.60;99.90;;;;;;5136944;27;20027;-54
2022/06/19 01:58:25;;;;;;;1.20;1.10;;;17.60;99.90;;;;;;5136442;27;20050;-57
2022/06/19 02:00:51;;;;;;;1.73;1.63;;;17.60;99.90;;;;;;5136504;27;20019;-57
2022/06/19 02:03:34;;;;;;;1.77;1.67;;;17.60;99.90;;;;;;5136598;27;20027;-56
2022/06/19 02:06:00;;;;;;;2.08;1.80;;;17.50;99.90;;;;;;5136385;27;20029;-57
2022/06/19 02:08:28;;;;;;;1.50;1.40;;;17.40;99.90;;;;;;5136455;27;20102;-55
2022/06/19 02:10:55;;;;;;;1.83;1.40;;;17.40;99.90;;;;;;5136648;27;20019;-57
2022/06/19 02:13:23;;;;;;;1.42;1.33;;;17.40;99.90;;;;;;5135737;27;20434;-54
2022/06/19 02:15:50;;;;;;;1.50;1.40;;;17.40;99.90;;;;;;5136213;27;20046;-58
2022/06/19 02:18:22;;;;;;;1.45;1.35;;;17.30;99.90;;;;;;5136309;27;20066;-54
2022/06/19 02:20:50;;;;;;;1.42;1.33;;;17.30;99.90;;;;;;5136390;27;20102;-55
2022/06/19 02:23:20;;;;;;;1.13;1.05;;;17.30;99.90;;;;;;5136239;27;20057;-55
2022/06/19 02:25:46;;;;;;;1.50;1.40;;;17.30;99.90;;;;;;5136358;27;20076;-56
2022/06/19 02:28:13;;;;;;;2.45;1.45;;;17.30;99.90;;;;;;5135986;27;20113;-55
2022/06/19 02:30:39;;;;;;;1.30;1.00;;;17.30;99.90;;;;;;5135936;27;20027;-54
2022/06/19 02:33:06;;;;;;;1.58;1.48;;;17.30;99.90;;;;;;5136239;27;20044;-57
2022/06/19 02:35:32;;;;;;;1.52;1.42;;;17.20;99.90;;;;;;5135782;27;20469;-55
2022/06/19 02:37:58;;;;;;;1.70;1.42;;;17.20;99.90;;;;;;5135794;27;20028;-59
2022/06/19 02:40:42;;;;;;;1.73;1.30;;;17.20;99.90;;;;;;5135869;27;20015;-57
2022/06/19 02:43:16;;;;;;;0.90;0.90;;;17.10;99.90;;;;;;5135703;27;20526;-58
2022/06/19 02:45:42;;;;;;;1.08;1.00;;;17.10;99.90;;;;;;5135774;27;20389;-56
2022/06/19 02:48:18;;;;;;;1.33;1.00;;;17.10;99.90;;;;;;5117400;27;20020;-54
2022/06/19 02:50:43;;;;;;;1.20;1.10;;;17.10;99.90;;;;;;5135699;27;20023;-53
2022/06/19 02:53:09;;;;;;;1.25;1.15;;;17.10;99.90;;;;;;5135496;27;20488;-52
2022/06/19 02:55:35;;;;;;;1.40;1.30;;;17.10;99.90;;;;;;5135421;27;20030;-55
2022/06/19 02:58:00;;;;;;;4.35;2.20;;;17.10;99.90;;;;;;5135317;27;20039;-58
2022/06/19 03:00:27;;;;;;;1.65;1.55;;;17.10;99.90;;;;;;5135224;27;20015;-57
2022/06/19 03:02:57;;;;;;;1.50;1.40;;;16.90;99.90;;;;;;5135282;27;20538;-54
2022/06/19 03:05:26;;;;;;;1.50;1.40;;;16.90;99.90;;;;;;5135262;27;20080;-58
2022/06/19 03:07:52;;;;;;;1.45;1.33;;;16.90;99.90;;;;;;5135338;27;20098;-55
2022/06/19 03:10:18;;;;;;;2.00;1.80;;;16.90;99.90;;;;;;5135128;27;20452;-52
2022/06/19 03:12:44;;;;;;;1.50;1.40;;;16.90;99.90;;;;;;5135276;27;20110;-58
2022/06/19 03:15:11;;;;;;;1.50;1.40;;;16.90;99.90;;;;;;5134909;27;20111;-57
2022/06/19 03:17:38;;;;;;;1.40;1.30;;;16.80;99.90;;;;;;5134945;27;20123;-58
2022/06/19 03:20:05;;;;;;;1.40;1.30;;;16.80;99.90;;;;;;5135143;27;20015;-56
2022/06/19 03:22:30;;;;;;;3.33;1.83;;;16.80;99.90;;;;;;5135227;27;20405;-50
2022/06/19 03:24:56;;;;;;;1.40;1.30;;;16.80;99.90;;;;;;5134241;27;20023;-57
2022/06/19 03:27:22;;;;;;;1.83;1.40;;;16.80;99.90;;;;;;5134860;27;20028;-55
2022/06/19 03:29:47;;;;;;;1.88;1.77;;;16.80;99.90;;;;;;5134829;27;20038;-55
2022/06/19 03:32:14;;;;;;;2.47;2.00;;;16.80;99.90;;;;;;5134764;27;20422;-57
2022/06/19 03:34:42;;;;;;;1.40;1.30;;;16.70;99.90;;;;;;5135047;27;20079;-54
2022/06/19 03:37:08;;;;;;;2.85;2.00;;;16.70;99.90;;;;;;5134689;27;20026;-56
2022/06/19 03:39:34;;;;;;;2.88;1.42;;;16.60;99.90;;;;;;5134835;27;20019;-56
2022/06/19 03:42:00;;;;;;;1.70;1.30;;;16.70;99.90;;;;;;5134913;27;20476;-58
2022/06/19 03:44:26;;;;;;;1.40;1.30;;;16.70;99.90;;;;;;5134429;27;20022;-55
2022/06/19 03:46:52;;;;;;;1.30;1.10;;;16.70;99.90;;;;;;5134559;27;20034;-57
2022/06/19 03:49:18;;;;;;;1.10;1.00;;;16.80;99.90;;;;;;5134385;27;20023;-51
2022/06/19 03:51:44;;;;;;;1.40;1.30;;;16.80;99.90;;;;;;5134740;27;20039;-56
2022/06/19 03:54:10;;;;;;;1.38;1.27;;;16.90;99.90;;;;;;5134551;27;20023;-58
2022/06/19 03:56:37;;;;;;;1.38;1.27;;;16.90;99.90;;;;;;5134582;27;20526;-56
2022/06/19 03:59:04;;;;;;;1.50;1.40;;;16.90;99.90;;;;;;5134130;27;20047;-55
2022/06/19 04:01:37;;;;;;;1.58;1.48;;;16.90;99.90;;;;;;5134648;27;20072;-58
2022/06/19 04:04:06;;;;;;;1.65;1.27;;;17.00;99.90;;;;;;5134311;27;20030;-56
2022/06/19 04:06:36;;;;;;;1.83;1.50;;;17.10;99.90;;;;;;5134255;27;20465;-56
2022/06/19 04:09:04;;;;;;;1.50;1.20;;;17.10;99.90;;;;;;5134456;27;20114;-52
2022/06/19 04:11:30;;;;;;;1.40;1.30;;;17.10;99.90;;;;;;5134245;27;20488;-55
2022/06/19 04:13:56;;;;;;;1.67;1.50;;;17.20;99.90;;;;;;5134048;28;20103;-57
2022/06/19 04:16:28;;;;;;;1.30;1.20;;;17.20;99.90;;;;;;5134367;28;20023;-55
2022/06/19 04:18:55;;;;;;;1.73;1.38;;;17.20;99.90;;;;;;5134359;28;20080;-55
2022/06/19 04:21:23;;;;;;;1.38;1.27;;;17.20;99.90;;;;;;5134198;28;20078;-58
2022/06/19 04:23:53;;;;;;;3.78;1.52;;;17.20;99.90;;;;;;5134116;28;20050;-57
2022/06/19 04:26:19;;;;;;;1.70;1.60;;;17.20;99.90;;;;;;5134174;28;20027;-55
2022/06/19 04:28:45;;;;;;;1.95;1.73;;;17.30;99.90;;;;;;5134453;28;20084;-55
2022/06/19 04:31:11;;;;;;;2.17;1.98;;;17.30;99.90;;;;;;5133954;28;20032;-58
2022/06/19 04:33:40;;;;;;;3.47;1.73;;;17.30;99.90;;;;;;5134190;28;20027;-58
2022/06/19 04:36:14;;;;;;;1.45;1.35;;;17.40;99.90;;;;;;5137002;27;20481;-54
2022/06/19 04:38:43;;;;;;;1.58;1.40;;;17.40;99.90;;;;;;5138341;27;20430;-58
2022/06/19 04:41:14;;;;;;;2.75;2.13;;;17.40;99.90;;;;;;5137986;27;20023;-56
2022/06/19 04:43:40;;;;;;;1.60;1.50;;;17.40;99.90;;;;;;5138063;27;20106;-58
2022/06/19 04:46:06;;;;;;;2.08;1.92;;;17.40;99.90;;;;;;5137977;27;20049;-57
2022/06/19 04:48:33;;;;;;;1.92;1.83;;;17.40;99.90;;;;;;5137949;27;20023;-56
2022/06/19 04:50:59;;;;;;;1.70;1.60;;;17.50;99.90;;;;;;5138050;27;20407;-57
2022/06/19 04:53:24;;;;;;;2.47;2.08;;;17.50;99.90;;;;;;5138090;27;20023;-57
2022/06/19 04:55:51;;;;;;;1.50;1.40;;;17.60;99.90;;;;;;5137708;27;20473;-54
2022/06/19 04:58:16;;;;;;;2.10;1.65;;;17.60;99.90;;;;;;5137688;27;20443;-56
2022/06/19 05:00:42;;;;;;;1.40;1.30;;;17.60;99.90;;;;;;5137705;27;20019;-55
2022/06/19 05:03:08;;;;;;;1.55;1.40;;;17.70;99.90;;;;;;5137838;27;20102;-57
2022/06/19 05:05:33;;;;;;;2.00;1.50;;;17.80;99.90;;;;;;5137673;27;20440;-55
2022/06/19 05:07:59;;;;;;;2.00;1.83;;;17.90;99.90;;;;;;5137542;27;20023;-57
2022/06/19 05:10:25;;;;;;;2.97;1.92;;;17.90;99.90;;;;;;5137439;27;20023;-57
2022/06/19 05:12:57;;;;;;;2.50;2.20;;;17.90;99.90;;;;;;5137784;27;20031;-57
2022/06/19 05:15:23;;;;;;;2.92;2.20;;;17.90;99.90;;;;;;5137584;27;20030;-58
2022/06/19 05:17:49;;;;;;;2.15;1.90;;;17.80;99.90;;;;;;5137290;27;20019;-53
2022/06/19 05:20:14;;;;;;;1.98;1.88;;;17.90;99.90;;;;;;5137671;27;20027;-53
2022/06/19 05:22:40;;;;;;;4.45;2.20;;;18.00;99.90;;;;;;5137315;27;20031;-56
2022/06/19 05:25:08;;;;;;;2.95;2.35;;;18.10;99.90;;;;;;5136964;27;20030;-57
2022/06/19 05:27:36;;;;;;;2.63;2.40;;;18.10;99.90;;;;;;5137273;27;20479;-59
2022/06/19 05:30:02;;;;;;;2.17;1.70;;;18.20;99.90;;;;;;5137483;27;20026;-57
2022/06/19 05:32:28;;;;;;;1.77;1.67;;;18.30;99.90;;;;;;5137066;27;20027;-54
2022/06/19 05:34:53;;;;;;;2.40;2.20;;;18.40;99.90;;;;;;5137219;27;20037;-56
2022/06/19 05:37:19;;;;;;;2.55;2.35;;;18.50;99.90;;;;;;5136972;27;20027;-55
2022/06/19 05:39:45;;;;;;;2.40;2.20;;;18.60;99.90;;;;;;5136977;27;20030;-58
2022/06/19 05:42:10;;;;;;;2.67;2.47;;;18.70;99.90;;;;;;5137219;27;20477;-57
2022/06/19 05:44:36;;;;;;;2.72;1.98;;;18.80;99.90;;;;;;5136976;27;20015;-57
2022/06/19 05:47:02;;;;;;;1.80;1.70;;;18.80;99.90;;;;;;5135831;27;20493;-57
2022/06/19 05:49:28;;;;;;;2.08;1.95;;;18.90;99.90;;;;;;5137033;27;20052;-53
2022/06/19 05:51:54;;;;;;;1.90;1.70;;;19.10;99.90;;;;;;5136738;27;20027;-58
2022/06/19 05:54:19;;;;;;;3.25;2.47;;;19.20;99.90;;;;;;5136463;27;20019;-58
2022/06/19 05:56:45;;;;;;;1.80;1.63;;;19.30;99.90;;;;;;5136792;27;20027;-56
2022/06/19 05:59:11;;;;;;;2.40;2.20;;;19.40;99.90;;;;;;5136375;27;20050;-55
2022/06/19 06:01:36;;;;;;;2.33;2.13;;;19.50;99.90;;;;;;5136601;27;20034;-56
2022/06/19 06:04:02;;;;;;;3.50;3.20;;;19.60;99.90;;;;;;5136502;27;20027;-58
2022/06/19 06:06:30;;;;;;;3.33;2.58;;;19.60;99.90;;;;;;5136530;27;20046;-56
2022/06/19 06:08:56;;;;;;;3.95;3.00;;;19.60;99.90;;;;;;5136253;27;20031;-58
2022/06/19 06:11:23;;;;;;;2.88;2.67;;;19.70;99.90;;;;;;5136548;27;20033;-53
2022/06/19 06:13:49;;;;;;;4.78;3.60;;;19.80;99.90;;;;;;5136368;27;20560;-54
2022/06/19 06:16:18;;;;;;;2.92;2.70;;;20.00;99.90;;;;;;5136581;27;20110;-57
2022/06/19 06:18:44;;;;;;;2.65;2.42;;;20.00;99.90;;;;;;5136066;27;20489;-56
2022/06/19 06:21:16;;;;;;;3.35;3.05;;;20.10;99.90;;;;;;5136182;27;20107;-54
2022/06/19 06:23:42;;;;;;;2.88;2.60;;;20.20;99.90;;;;;;5135896;27;20064;-58
2022/06/19 06:26:11;;;;;;;2.60;2.40;;;20.20;99.90;;;;;;5136092;27;20407;-55
2022/06/19 06:28:39;;;;;;;3.53;2.75;;;20.40;99.90;;;;;;5136340;27;20027;-55
2022/06/19 06:31:05;;;;;;;2.97;2.13;;;20.60;99.90;;;;;;5135927;27;20056;-59
2022/06/19 06:33:31;;;;;;;3.03;2.83;;;20.60;99.90;;;;;;5135865;27;20043;-56
2022/06/19 06:35:57;;;;;;;3.08;2.78;;;20.80;99.90;;;;;;5135919;27;20027;-58
2022/06/19 06:38:24;;;;;;;3.42;3.15;;;20.90;99.90;;;;;;5135841;27;20026;-57
2022/06/19 06:40:50;;;;;;;3.15;2.88;;;21.00;99.90;;;;;;5135983;27;20419;-54
2022/06/19 06:43:16;;;;;;;3.03;2.83;;;21.00;99.90;;;;;;5136046;27;20023;-57
2022/06/19 06:45:42;;;;;;;3.15;2.53;;;21.20;99.90;;;;;;5135681;27;20066;-52
2022/06/19 06:48:08;;;;;;;2.72;2.53;;;21.30;99.90;;;;;;5135518;27;20058;-58
2022/06/19 06:50:34;;;;;;;3.65;2.67;;;21.50;99.90;;;;;;5135740;27;20473;-57
2022/06/19 06:53:00;;;;;;;2.75;2.17;;;21.60;99.90;;;;;;5135647;27;20056;-59
2022/06/19 06:55:26;;;;;;;2.97;2.35;;;21.80;99.90;;;;;;5135638;27;20024;-56
2022/06/19 06:57:51;;;;;;;2.25;2.08;;;22.00;99.90;;;;;;5135231;27;20511;-55
2022/06/19 07:00:20;;;;;;;2.03;1.83;;;22.10;99.80;;;;;;5135571;27;20019;-55
2022/06/19 07:02:46;;;;;;;2.22;1.90;;;22.20;99.90;;;;;;5135497;27;20023;-57
2022/06/19 07:05:12;;;;;;;2.45;2.05;;;22.40;99.90;;;;;;5135454;27;20544;-58
2022/06/19 07:07:38;;;;;;;2.95;1.80;;;22.60;99.90;;;;;;5135335;27;20069;-56
2022/06/19 07:10:05;;;;;;;2.00;1.90;;;22.70;99.10;;;;;;5135142;27;20098;-57
2022/06/19 07:12:30;;;;;;;2.55;2.20;;;22.70;97.90;;;;;;5135139;27;20027;-58
2022/06/19 07:14:57;;;;;;;2.35;1.90;;;22.90;98.20;;;;;;5135117;27;20030;-56
2022/06/19 07:17:23;;;;;;;2.75;2.50;;;23.00;98.30;;;;;;5134927;27;20473;-57
2022/06/19 07:19:49;;;;;;;2.58;2.25;;;23.20;99.10;;;;;;5134975;27;20030;-57
2022/06/19 07:22:16;;;;;;;2.67;2.47;;;23.30;98.20;;;;;;5134889;27;20068;-58
2022/06/19 07:24:46;;;;;;;2.30;2.10;;;23.40;98.60;;;;;;5134957;27;20023;-58
2022/06/19 07:27:13;;;;;;;3.50;2.00;;;23.50;97.80;;;;;;5134933;27;20030;-58
2022/06/19 07:29:43;;;;;;;2.38;2.17;;;23.80;99.00;;;;;;5135149;27;20015;-53
2022/06/19 07:32:10;;;;;;;2.28;2.17;;;24.00;98.00;;;;;;5134761;27;20016;-57
2022/06/19 07:34:36;;;;;;;2.50;2.10;;;24.10;97.10;;;;;;5135024;27;20023;-57
2022/06/19 07:37:02;;;;;;;2.33;2.17;;;24.20;97.40;;;;;;5134498;27;20016;-57
2022/06/19 07:39:27;;;;;;;2.35;1.95;;;24.40;95.00;;;;;;5135023;27;20023;-56
2022/06/19 07:41:53;;;;;;;2.00;1.83;;;24.50;94.70;;;;;;5134593;27;20418;-58
2022/06/19 07:44:19;;;;;;;2.03;1.83;;;24.60;95.40;;;;;;5134790;27;20504;-58
2022/06/19 07:50:29;;;;;;;1.80;1.70;;;25.60;95.00;;;;;;5134575;27;20091;-59
2022/06/19 07:52:23;;;;;;;1.85;1.75;;;28.10;94.10;;;;;;5124959;27;20034;-54
2022/06/19 07:54:49;;;;;;;2.13;1.70;;;31.20;84.90;;;;;;5134466;27;20402;-59
2022/06/19 07:57:15;;;;;;;1.70;1.60;;;33.00;72.20;;;;;;5134328;27;20077;-58
2022/06/19 07:59:40;;;;;;;1.83;1.40;;;34.40;65.10;;;;;;5134392;27;20035;-55
2022/06/19 08:02:06;;;;;;;3.47;1.88;;;35.50;62.30;;;;;;5134395;27;20023;-55
2022/06/19 08:04:32;;;;;;;2.25;1.30;;;36.20;53.70;;;;;;5134191;27;20054;-57
2022/06/19 08:06:57;;;;;;;1.60;1.50;;;36.70;55.00;;;;;;5134296;27;20471;-59
2022/06/19 08:09:23;;;;;;;1.35;1.25;;;37.30;53.40;;;;;;5133784;27;20051;-58
2022/06/19 08:11:49;;;;;;;2.28;1.65;;;37.70;49.80;;;;;;5134410;27;20022;-58
2022/06/19 08:14:15;;;;;;;3.67;1.42;;;38.10;45.20;;;;;;5134450;27;20020;-57
2022/06/19 08:16:40;;;;;;;1.30;1.20;;;37.40;42.50;;;;;;5134232;28;20633;-57
2022/06/19 08:19:06;;;;;;;1.80;1.10;;;37.30;45.30;;;;;;5134151;28;20038;-57
2022/06/19 08:21:32;;;;;;;1.83;1.20;;;37.70;43.70;;;;;;5134454;28;20019;-54
2022/06/19 08:23:58;;;;;;;1.40;1.30;;;37.90;43.50;;;;;;5134002;28;20085;-58
2022/06/19 08:26:23;;;;;;;1.13;1.00;;;37.70;43.80;;;;;;5134301;28;20023;-54
2022/06/19 08:31:20;;;;;;;0.90;0.90;;;38.10;42.60;;;;;;5134289;28;20110;-57
2022/06/19 08:33:46;;;;;;;1.45;1.23;;;38.40;43.00;;;;;;5133921;28;20093;-56
2022/06/19 08:36:12;;;;;;;0.80;0.80;;;38.30;38.20;;;;;;5134037;28;20088;-57
2022/06/19 08:38:44;;;;;;;0.82;0.80;;;38.00;40.40;;;;;;5133908;28;20027;-58
2022/06/19 08:41:13;;;;;;;0.85;0.85;;;38.20;40.80;;;;;;5134290;28;20362;-59
2022/06/19 08:43:57;;;;;;;0.88;0.88;;;37.90;37.00;;;;;;5134006;28;20527;-58
2022/06/19 08:47:00;;;;;;;1.23;0.77;;;38.10;39.20;;;;;;5134082;28;20034;-56
2022/06/19 08:49:45;;;;;;;1.17;0.90;;;38.70;40.30;;;;;;5133628;28;20023;-58
2022/06/19 08:52:36;;;;;;;0.60;0.60;;;38.80;38.30;;;;;;5134076;28;20033;-59
2022/06/19 08:55:20;;;;;;;0.80;0.60;;;38.90;38.80;;;;;;5134143;28;20031;-58
2022/06/19 08:57:55;;;;;;;0.80;0.80;;;39.30;38.00;;;;;;5133522;28;20051;-57
2022/06/19 09:00:32;;;;;;;1.25;0.60;;;38.70;36.60;;;;;;5133983;28;20026;-55
2022/06/19 09:03:08;;;;;;;0.70;0.70;;;38.70;35.90;;;;;;5133519;28;20034;-57
2022/06/19 09:05:55;;;;;;;0.70;0.70;;;38.50;37.20;;;;;;5133785;28;20019;-57
2022/06/19 09:08:26;;;;;;;1.10;0.90;;;38.50;36.10;;;;;;5134015;28;20038;-55
2022/06/19 09:10:57;;;;;;;1.83;0.90;;;38.30;35.70;;;;;;5133832;28;20023;-57
2022/06/19 09:13:50;;;;;;;0.80;0.80;;;38.30;40.20;;;;;;5133660;28;20023;-58
2022/06/19 09:16:36;;;;;;;0.70;0.70;;;37.80;34.10;;;;;;5133483;28;20050;-58
2022/06/19 09:19:24;;;;;;;0.70;0.63;;;37.90;36.40;;;;;;5133809;28;20050;-58
2022/06/19 09:21:58;;;;;;;0.68;0.50;;;38.00;35.40;;;;;;5134269;27;20023;-57
2022/06/19 09:24:33;;;;;;;0.80;0.70;;;38.20;33.70;;;;;;5137506;27;20049;-59
2022/06/19 09:27:00;;;;;;;0.77;0.70;;;38.10;36.00;;;;;;5137257;27;20107;-54
2022/06/19 09:29:35;;;;;;;0.70;0.68;;;38.10;34.20;;;;;;5137181;27;20076;-57
2022/06/19 09:32:27;;;;;;;0.70;0.65;;;37.90;35.40;;;;;;5137017;27;20023;-57
2022/06/19 09:35:09;;;;;;;1.00;1.00;;;38.40;36.80;;;;;;5125533;27;20401;-56
2022/06/19 09:38:00;;;;;;;2.50;0.80;;;38.80;37.00;;;;;;5136909;27;20431;-58
2022/06/19 09:40:34;;;;;;;0.70;0.70;;;38.20;35.50;;;;;;5137304;27;20423;-56
2022/06/19 09:43:20;;;;;;;0.70;0.65;;;37.80;35.30;;;;;;5136946;27;20105;-59
2022/06/19 09:45:57;;;;;;;0.60;0.60;;;38.10;35.90;;;;;;5136750;27;20088;-59
2022/06/19 09:48:37;;;;;;;0.80;0.80;;;38.40;35.90;;;;;;5136760;27;20031;-57
2022/06/19 09:51:20;;;;;;;0.90;0.70;;;37.50;34.70;;;;;;5137053;27;20376;-59
2022/06/19 09:53:54;;;;;;;0.90;0.70;;;37.80;37.20;;;;;;5136767;27;20389;-57
2022/06/19 09:56:25;;;;;;;0.73;0.73;;;37.50;34.70;;;;;;5136673;27;20038;-58
2022/06/19 09:59:01;;;;;;;1.05;0.90;;;37.50;36.90;;;;;;5136593;27;20442;-58
2022/06/19 10:01:29;;;;;;;0.80;0.80;;;37.70;36.90;;;;;;5136509;27;20030;-59
2022/06/19 10:04:02;;;;;;;1.50;0.93;;;37.60;35.90;;;;;;5136521;27;20094;-56
2022/06/19 10:06:39;;;;;;;0.90;0.80;;;37.10;34.30;;;;;;5136840;27;20377;-59
2022/06/19 10:09:24;;;;;;;1.15;0.60;;;37.20;37.30;;;;;;5136667;27;20023;-56
2022/06/19 10:11:54;;;;;;;0.60;0.60;;;37.30;38.60;;;;;;5136597;27;20029;-56
2022/06/19 10:14:32;;;;;;;1.42;1.20;;;37.30;37.60;;;;;;5136626;27;20042;-59
2022/06/19 10:17:21;;;;;;;1.23;1.00;;;37.50;36.90;;;;;;5136298;27;20023;-56
2022/06/19 10:19:51;;;;;;;1.50;0.90;;;37.30;35.80;;;;;;5136531;27;20023;-58
2022/06/19 10:22:38;;;;;;;0.70;0.70;;;36.90;36.40;;;;;;5136263;27;20017;-58
2022/06/19 10:25:18;;;;;;;0.90;0.90;;;36.90;40.00;;;;;;5136158;27;20485;-59
2022/06/19 10:28:18;;;;;;;0.73;0.73;;;37.00;39.50;;;;;;5136394;27;20035;-59
2022/06/19 10:31:18;;;;;;;0.80;0.80;;;37.50;38.70;;;;;;5136125;27;20435;-56
2022/06/19 10:33:50;;;;;;;0.80;0.80;;;37.40;36.30;;;;;;5135823;27;20023;-56
2022/06/19 10:36:51;;;;;;;0.70;0.70;;;37.20;41.30;;;;;;5136030;27;20053;-57
2022/06/19 10:39:20;;;;;;;0.90;0.90;;;37.70;38.00;;;;;;5130637;27;20035;-59
2022/06/19 10:42:06;;;;;;;0.70;0.70;;;38.10;39.40;;;;;;5135733;27;20047;-57
2022/06/19 10:44:54;;;;;;;0.70;0.70;;;38.20;37.00;;;;;;5135568;27;20542;-57
2022/06/19 10:47:35;;;;;;;0.98;0.98;;;38.00;38.40;;;;;;5135792;27;20050;-59
2022/06/19 10:50:27;;;;;;;1.08;0.80;;;38.30;36.20;;;;;;5135769;27;20385;-57
2022/06/19 10:53:04;;;;;;;0.80;0.80;;;38.10;35.30;;;;;;5135622;27;20473;-58
2022/06/19 10:56:10;;;;;;;0.90;0.90;;;37.90;40.20;;;;;;5135501;27;20031;-58
2022/06/19 10:58:36;;;;;;;1.50;0.95;;;38.10;34.50;;;;;;5082828;27;20050;-58
2022/06/19 11:01:07;;;;;;;1.33;1.15;;;37.90;39.90;;;;;;5135528;27;20070;-60
2022/06/19 11:06:38;;;;;;;1.48;1.20;;;38.50;34.90;;;;;;5135493;27;20405;-58
2022/06/19 11:09:14;;;;;;;1.00;1.00;;;38.60;37.10;;;;;;5135155;27;20027;-59
2022/06/19 11:11:42;;;;;;;1.55;1.00;;;38.40;38.10;;;;;;5135191;27;20026;-59
2022/06/19 11:14:12;;;;;;;1.58;0.88;;;38.60;36.30;;;;;;5134945;27;20500;-58
2022/06/19 11:17:07;;;;;;;1.35;0.98;;;38.20;36.40;;;;;;5135420;27;20027;-59
2022/06/19 11:19:35;;;;;;;3.15;1.40;;;38.10;40.00;;;;;;5134887;27;20058;-58
2022/06/19 11:22:03;;;;;;;2.70;1.20;;;38.10;35.10;;;;;;5135131;27;20027;-58
2022/06/19 11:24:32;;;;;;;1.35;1.10;;;37.60;36.70;;;;;;5135040;27;20030;-57
2022/06/19 11:26:59;;;;;;;0.90;0.80;;;37.10;35.90;;;;;;5134894;27;20030;-58
2022/06/19 11:29:27;;;;;;;1.20;0.90;;;37.20;37.90;;;;;;5135167;27;20065;-59
2022/06/19 11:32:10;;;;;;;1.00;1.00;;;37.60;41.10;;;;;;5134946;27;20019;-59
2022/06/19 11:34:44;;;;;;;0.90;0.90;;;37.60;36.10;;;;;;5134772;27;20031;-59
2022/06/19 11:37:24;;;;;;;2.33;0.98;;;37.60;38.60;;;;;;5135066;27;20031;-59
2022/06/19 11:39:58;;;;;;;1.13;1.02;;;37.60;37.60;;;;;;5134894;27;20023;-57
2022/06/19 11:42:38;;;;;;;2.20;1.10;;;37.50;35.10;;;;;;5134413;27;20508;-58
2022/06/19 11:45:23;;;;;;;2.30;0.98;;;37.00;37.30;;;;;;5133908;27;20054;-58
2022/06/19 11:47:54;;;;;;;1.10;1.00;;;37.20;37.90;;;;;;5134777;27;20027;-58
2022/06/19 11:50:44;;;;;;;1.83;1.10;;;37.20;38.90;;;;;;5134589;27;20408;-59
2022/06/19 11:53:24;;;;;;;1.25;1.00;;;37.70;38.40;;;;;;5134525;27;20076;-58
2022/06/19 11:56:11;;;;;;;1.38;1.05;;;38.00;39.00;;;;;;5134651;27;20513;-59
2022/06/19 11:58:44;;;;;;;1.13;1.05;;;38.00;38.20;;;;;;5134225;27;20067;-58
2022/06/19 12:01:13;;;;;;;0.98;0.90;;;37.60;37.10;;;;;;5134538;27;20113;-58
2022/06/19 12:03:47;;;;;;;0.88;0.88;;;37.50;37.00;;;;;;5134370;27;20023;-59
2022/06/19 12:06:15;;;;;;;0.93;0.90;;;37.60;39.50;;;;;;5134661;27;20377;-58
2022/06/19 12:09:01;;;;;;;1.20;1.10;;;37.80;41.10;;;;;;5134630;27;20092;-59
2022/06/19 12:11:37;;;;;;;1.50;1.10;;;37.70;42.20;;;;;;5134272;27;20027;-58
2022/06/19 12:14:08;;;;;;;1.05;0.90;;;37.90;40.70;;;;;;5134337;27;20051;-57
2022/06/19 12:16:35;;;;;;;1.30;1.20;;;37.90;41.40;;;;;;5134159;27;20031;-59
2022/06/19 12:19:33;;;;;;;1.00;0.95;;;38.20;39.70;;;;;;5134270;28;20072;-59
2022/06/19 12:22:04;;;;;;;1.50;0.90;;;38.30;38.70;;;;;;5078315;28;20027;-58
2022/06/19 12:25:05;;;;;;;1.77;1.30;;;38.40;38.80;;;;;;5134519;28;20102;-57
2022/06/19 12:27:38;;;;;;;1.25;1.05;;;38.40;41.70;;;;;;5120263;28;20034;-59
2022/06/19 12:30:11;;;;;;;1.00;0.90;;;38.30;39.60;;;;;;5134126;28;20015;-58
2022/06/19 12:32:43;;;;;;;0.90;0.90;;;38.00;39.80;;;;;;5134231;28;20072;-58
2022/06/19 12:35:32;;;;;;;0.93;0.93;;;37.90;39.10;;;;;;5134042;28;20023;-57
2022/06/19 12:37:59;;;;;;;0.98;0.98;;;38.20;39.20;;;;;;5134274;28;20427;-59
2022/06/19 12:40:34;;;;;;;1.25;1.00;;;38.10;41.10;;;;;;5133788;28;20016;-58
2022/06/19 12:43:14;;;;;;;1.00;0.90;;;38.20;40.50;;;;;;5134302;28;20023;-58
2022/06/19 12:45:56;;;;;;;0.80;0.80;;;38.20;38.20;;;;;;5134261;28;20015;-58
2022/06/19 12:48:52;;;;;;;1.50;1.40;;;38.30;40.60;;;;;;5134014;28;20019;-60
2022/06/19 12:51:42;;;;;;;1.25;1.15;;;37.60;39.00;;;;;;5133826;28;20481;-58
2022/06/19 12:54:50;;;;;;;1.45;0.85;;;37.70;39.10;;;;;;5133628;28;20370;-59
2022/06/19 12:57:45;;;;;;;1.05;0.90;;;38.10;39.50;;;;;;5136871;27;20050;-59
2022/06/19 13:00:40;;;;;;;1.80;1.80;;;38.40;41.70;;;;;;5128396;27;20114;-58
2022/06/19 13:03:20;;;;;;;1.98;0.90;;;38.40;39.90;;;;;;5137859;27;20019;-59
2022/06/19 13:06:13;;;;;;;1.20;1.10;;;38.50;39.20;;;;;;5137891;27;20107;-57
2022/06/19 13:08:47;;;;;;;1.35;1.02;;;38.10;36.40;;;;;;5137429;27;20537;-58
2022/06/19 13:11:16;;;;;;;1.10;1.00;;;37.50;37.10;;;;;;5137571;27;20033;-57
2022/06/19 13:13:59;;;;;;;0.90;0.90;;;37.40;36.90;;;;;;5137601;27;20388;-58
2022/06/19 13:16:50;;;;;;;2.40;1.00;;;37.10;40.20;;;;;;5137431;27;20030;-59
2022/06/19 13:19:45;;;;;;;1.20;1.10;;;36.90;42.20;;;;;;5137474;27;20415;-57
2022/06/19 13:22:26;;;;;;;1.98;1.10;;;37.20;40.70;;;;;;5137431;27;20019;-58